Airport Name : Campbeltown

Other Name : Campbeltown

ICAO : EGEC

IATA : CAL

FAA :

Latitude : 55.437222

Longitude : -5.686389

Country : United Kingdom

Local Date and Time : 8/22/2018 6:46:00 AM

 

TAF (Terminal Aerodrome Forecast)

 

METAR (METeorological Aerodrome Report)

EGEC 220150Z 28007KT 4000 RADZ OVC002 15/15 Q1009